aviador You're here:

KZPH Decoded Metar

in
Report Time2017-11-24 02:15:00
UTC Time2017-11-24 01:58:49
Flight Rules ifr IFR
Wind020° at 06 kt
W.Decomp.*RWY 01: 5.9 kt HW 1.0 kt RCW
RWY 36: 5.6 kt HW 2.1 kt RCW
RWY 04: 5.6 kt HW 2.1 kt LCW
RWY 05: 5.2 kt HW 3 kt LCW
W.Rank020° ranks 1
Current wind is above 020° avg. (5.4)
Visibility9999 m
Phenomena:N/A
Clouds:Broken 005 Hf
Overcast 015 Hf
Ceiling500 ft
Temp19°C
Dew Point19°C (100% RH)
QNH1010 hPa
Raw Report
KZPH 240215Z AUTO 02006KT 10SM BKN005 OVC015 19/19 A2983 RMK AO2
LTG DSNT SW T01900185=

Extra information for KZPH:More info

Social comments